sensor_id;sensor_type;location;lat;lon;timestamp;temperature;humidity
74081;SHT31;62438;52.228;6.864;2023-03-21T00:01:29;9.40;92.14
74081;SHT31;62438;52.228;6.864;2023-03-21T00:03:31;9.42;91.87
74081;SHT31;62438;52.228;6.864;2023-03-21T00:05:32;9.39;92.33
74081;SHT31;62438;52.228;6.864;2023-03-21T00:07:33;9.40;92.06
74081;SHT31;62438;52.228;6.864;2023-03-21T00:09:33;9.40;92.16
74081;SHT31;62438;52.228;6.864;2023-03-21T00:11:34;9.40;92.08
74081;SHT31;62438;52.228;6.864;2023-03-21T00:13:35;9.42;92.03
74081;SHT31;62438;52.228;6.864;2023-03-21T00:15:38;9.43;92.01
74081;SHT31;62438;52.228;6.864;2023-03-21T00:17:49;9.47;91.90
74081;SHT31;62438;52.228;6.864;2023-03-21T00:19:52;9.46;92.00
74081;SHT31;62438;52.228;6.864;2023-03-21T00:21:53;9.47;91.67
74081;SHT31;62438;52.228;6.864;2023-03-21T00:23:54;9.52;91.56
74081;SHT31;62438;52.228;6.864;2023-03-21T00:25:55;9.49;91.63
74081;SHT31;62438;52.228;6.864;2023-03-21T00:27:56;9.49;91.64
74081;SHT31;62438;52.228;6.864;2023-03-21T00:29:56;9.50;91.61
74081;SHT31;62438;52.228;6.864;2023-03-21T00:31:57;9.53;91.37
74081;SHT31;62438;52.228;6.864;2023-03-21T00:33:57;9.57;91.37
74081;SHT31;62438;52.228;6.864;2023-03-21T00:35:57;9.54;91.25
74081;SHT31;62438;52.228;6.864;2023-03-21T00:37:58;9.59;91.02
74081;SHT31;62438;52.228;6.864;2023-03-21T00:39:58;9.57;91.15
74081;SHT31;62438;52.228;6.864;2023-03-21T00:41:59;9.57;91.16
74081;SHT31;62438;52.228;6.864;2023-03-21T00:43:59;9.60;91.13
74081;SHT31;62438;52.228;6.864;2023-03-21T00:45:59;9.60;91.28
74081;SHT31;62438;52.228;6.864;2023-03-21T00:48:00;9.59;91.42
74081;SHT31;62438;52.228;6.864;2023-03-21T00:50:00;9.54;91.55
74081;SHT31;62438;52.228;6.864;2023-03-21T00:52:06;9.56;91.98
74081;SHT31;62438;52.228;6.864;2023-03-21T00:54:10;9.60;91.78
74081;SHT31;62438;52.228;6.864;2023-03-21T00:56:11;9.57;91.81
74081;SHT31;62438;52.228;6.864;2023-03-21T00:58:11;9.56;91.92
74081;SHT31;62438;52.228;6.864;2023-03-21T01:00:13;9.56;91.92
74081;SHT31;62438;52.228;6.864;2023-03-21T01:02:14;9.57;91.91
74081;SHT31;62438;52.228;6.864;2023-03-21T01:04:21;9.57;91.86
74081;SHT31;62438;52.228;6.864;2023-03-21T01:06:25;9.56;92.01
74081;SHT31;62438;52.228;6.864;2023-03-21T01:08:27;9.59;91.79
74081;SHT31;62438;52.228;6.864;2023-03-21T01:10:27;9.59;91.99
74081;SHT31;62438;52.228;6.864;2023-03-21T01:12:27;9.59;91.80
74081;SHT31;62438;52.228;6.864;2023-03-21T01:14:28;9.63;91.72
74081;SHT31;62438;52.228;6.864;2023-03-21T01:16:28;9.63;91.87
74081;SHT31;62438;52.228;6.864;2023-03-21T01:18:29;9.64;91.78
74081;SHT31;62438;52.228;6.864;2023-03-21T01:20:29;9.62;92.16
74081;SHT31;62438;52.228;6.864;2023-03-21T01:22:30;9.59;91.87
74081;SHT31;62438;52.228;6.864;2023-03-21T01:24:30;9.63;91.91
74081;SHT31;62438;52.228;6.864;2023-03-21T01:26:31;9.64;91.62
74081;SHT31;62438;52.228;6.864;2023-03-21T01:28:32;9.62;91.51
74081;SHT31;62438;52.228;6.864;2023-03-21T01:30:33;9.66;91.58
74081;SHT31;62438;52.228;6.864;2023-03-21T01:32:33;9.64;91.57
74081;SHT31;62438;52.228;6.864;2023-03-21T01:34:34;9.67;91.65
74081;SHT31;62438;52.228;6.864;2023-03-21T01:36:35;9.62;91.84
74081;SHT31;62438;52.228;6.864;2023-03-21T01:38:37;9.63;91.83
74081;SHT31;62438;52.228;6.864;2023-03-21T01:40:38;9.64;91.72
74081;SHT31;62438;52.228;6.864;2023-03-21T01:42:39;9.62;91.96
74081;SHT31;62438;52.228;6.864;2023-03-21T01:45:01;9.64;91.65
74081;SHT31;62438;52.228;6.864;2023-03-21T01:47:02;9.60;91.79
74081;SHT31;62438;52.228;6.864;2023-03-21T01:49:17;9.60;92.23
74081;SHT31;62438;52.228;6.864;2023-03-21T01:51:20;9.64;91.81
74081;SHT31;62438;52.228;6.864;2023-03-21T01:53:26;9.62;92.06
74081;SHT31;62438;52.228;6.864;2023-03-21T01:55:29;9.63;91.97
74081;SHT31;62438;52.228;6.864;2023-03-21T01:57:34;9.63;92.10
74081;SHT31;62438;52.228;6.864;2023-03-21T01:59:40;9.59;92.15
74081;SHT31;62438;52.228;6.864;2023-03-21T02:01:42;9.60;92.48
74081;SHT31;62438;52.228;6.864;2023-03-21T02:03:46;9.59;92.20
74081;SHT31;62438;52.228;6.864;2023-03-21T02:05:54;9.60;92.44
74081;SHT31;62438;52.228;6.864;2023-03-21T02:07:58;9.57;92.55
74081;SHT31;62438;52.228;6.864;2023-03-21T02:09:59;9.59;92.58
74081;SHT31;62438;52.228;6.864;2023-03-21T02:12:01;9.56;92.60
74081;SHT31;62438;52.228;6.864;2023-03-21T02:14:01;9.56;92.79
74081;SHT31;62438;52.228;6.864;2023-03-21T02:18:36;9.52;93.32
74081;SHT31;62438;52.228;6.864;2023-03-21T02:21:12;9.49;93.59
74081;SHT31;62438;52.228;6.864;2023-03-21T02:23:44;9.46;93.85
74081;SHT31;62438;52.228;6.864;2023-03-21T02:28:25;9.50;93.92
74081;SHT31;62438;52.228;6.864;2023-03-21T02:38:42;9.46;94.58
74081;SHT31;62438;52.228;6.864;2023-03-21T02:40:54;9.44;94.87
74081;SHT31;62438;52.228;6.864;2023-03-21T02:43:14;9.44;94.98
74081;SHT31;62438;52.228;6.864;2023-03-21T02:45:21;9.43;95.14
74081;SHT31;62438;52.228;6.864;2023-03-21T02:47:28;9.39;95.64
74081;SHT31;62438;52.228;6.864;2023-03-21T02:49:33;9.38;96.11
74081;SHT31;62438;52.228;6.864;2023-03-21T02:51:36;9.32;96.88
74081;SHT31;62438;52.228;6.864;2023-03-21T02:53:40;9.26;97.38
74081;SHT31;62438;52.228;6.864;2023-03-21T02:55:42;9.18;97.79
74081;SHT31;62438;52.228;6.864;2023-03-21T02:57:43;9.12;98.34
74081;SHT31;62438;52.228;6.864;2023-03-21T02:59:47;9.08;98.61
74081;SHT31;62438;52.228;6.864;2023-03-21T03:01:54;9.04;98.66
74081;SHT31;62438;52.228;6.864;2023-03-21T03:03:55;9.07;98.72
74081;SHT31;62438;52.228;6.864;2023-03-21T03:05:58;9.04;98.76
74081;SHT31;62438;52.228;6.864;2023-03-21T03:10:50;9.01;98.82
74081;SHT31;62438;52.228;6.864;2023-03-21T03:22:13;9.04;98.61
74081;SHT31;62438;52.228;6.864;2023-03-21T03:26:35;9.04;98.58
74081;SHT31;62438;52.228;6.864;2023-03-21T03:28:40;9.00;98.81
74081;SHT31;62438;52.228;6.864;2023-03-21T03:30:42;8.98;98.73
74081;SHT31;62438;52.228;6.864;2023-03-21T03:34:48;8.97;98.87
74081;SHT31;62438;52.228;6.864;2023-03-21T03:36:54;8.98;98.82
74081;SHT31;62438;52.228;6.864;2023-03-21T03:38:56;9.00;98.64
74081;SHT31;62438;52.228;6.864;2023-03-21T03:41:01;9.00;98.50
74081;SHT31;62438;52.228;6.864;2023-03-21T03:43:08;9.04;98.33
74081;SHT31;62438;52.228;6.864;2023-03-21T03:45:09;9.04;98.34
74081;SHT31;62438;52.228;6.864;2023-03-21T03:47:15;9.05;98.30
74081;SHT31;62438;52.228;6.864;2023-03-21T03:49:23;9.04;98.23
74081;SHT31;62438;52.228;6.864;2023-03-21T03:51:31;9.04;98.11
74081;SHT31;62438;52.228;6.864;2023-03-21T03:53:40;9.04;98.06
74081;SHT31;62438;52.228;6.864;2023-03-21T03:55:42;9.05;98.04
74081;SHT31;62438;52.228;6.864;2023-03-21T03:57:44;9.05;97.97
74081;SHT31;62438;52.228;6.864;2023-03-21T03:59:45;9.07;97.93
74081;SHT31;62438;52.228;6.864;2023-03-21T04:01:46;9.08;97.74
74081;SHT31;62438;52.228;6.864;2023-03-21T04:03:47;9.12;97.54
74081;SHT31;62438;52.228;6.864;2023-03-21T04:05:50;9.14;97.47
74081;SHT31;62438;52.228;6.864;2023-03-21T04:07:52;9.10;97.59
74081;SHT31;62438;52.228;6.864;2023-03-21T04:09:52;9.12;97.33
74081;SHT31;62438;52.228;6.864;2023-03-21T04:11:53;9.10;97.38
74081;SHT31;62438;52.228;6.864;2023-03-21T04:13:53;9.12;97.55
74081;SHT31;62438;52.228;6.864;2023-03-21T04:15:54;9.12;97.69
74081;SHT31;62438;52.228;6.864;2023-03-21T04:17:55;9.11;97.64
74081;SHT31;62438;52.228;6.864;2023-03-21T04:19:55;9.08;97.84
74081;SHT31;62438;52.228;6.864;2023-03-21T04:21:55;9.14;97.81
74081;SHT31;62438;52.228;6.864;2023-03-21T04:23:56;9.10;98.02
74081;SHT31;62438;52.228;6.864;2023-03-21T04:25:56;9.07;98.20
74081;SHT31;62438;52.228;6.864;2023-03-21T04:27:57;9.07;98.35
74081;SHT31;62438;52.228;6.864;2023-03-21T04:29:58;9.05;98.34
74081;SHT31;62438;52.228;6.864;2023-03-21T04:31:58;9.05;98.22
74081;SHT31;62438;52.228;6.864;2023-03-21T04:34:01;9.05;98.35
74081;SHT31;62438;52.228;6.864;2023-03-21T04:36:04;9.05;98.07
74081;SHT31;62438;52.228;6.864;2023-03-21T04:38:05;9.05;97.91
74081;SHT31;62438;52.228;6.864;2023-03-21T04:40:06;9.12;97.60
74081;SHT31;62438;52.228;6.864;2023-03-21T04:42:07;9.14;97.78
74081;SHT31;62438;52.228;6.864;2023-03-21T04:44:08;9.12;97.74
74081;SHT31;62438;52.228;6.864;2023-03-21T04:46:09;9.14;97.77
74081;SHT31;62438;52.228;6.864;2023-03-21T04:48:09;9.15;97.71
74081;SHT31;62438;52.228;6.864;2023-03-21T04:50:10;9.18;97.43
74081;SHT31;62438;52.228;6.864;2023-03-21T04:52:12;9.19;97.49
74081;SHT31;62438;52.228;6.864;2023-03-21T04:54:12;9.22;97.26
74081;SHT31;62438;52.228;6.864;2023-03-21T04:56:14;9.23;97.08
74081;SHT31;62438;52.228;6.864;2023-03-21T04:58:15;9.26;97.07
74081;SHT31;62438;52.228;6.864;2023-03-21T05:00:16;9.29;97.03
74081;SHT31;62438;52.228;6.864;2023-03-21T05:02:16;9.31;96.68
74081;SHT31;62438;52.228;6.864;2023-03-21T05:04:17;9.28;96.55
74081;SHT31;62438;52.228;6.864;2023-03-21T05:06:17;9.25;96.86
74081;SHT31;62438;52.228;6.864;2023-03-21T05:08:18;9.28;96.47
74081;SHT31;62438;52.228;6.864;2023-03-21T05:10:18;9.32;96.49
74081;SHT31;62438;52.228;6.864;2023-03-21T05:12:19;9.28;96.68
74081;SHT31;62438;52.228;6.864;2023-03-21T05:14:22;9.26;96.77
74081;SHT31;62438;52.228;6.864;2023-03-21T05:16:23;9.22;96.93
74081;SHT31;62438;52.228;6.864;2023-03-21T05:18:26;9.25;96.71
74081;SHT31;62438;52.228;6.864;2023-03-21T05:20:26;9.23;96.69
74081;SHT31;62438;52.228;6.864;2023-03-21T05:22:26;9.26;96.47
74081;SHT31;62438;52.228;6.864;2023-03-21T05:24:28;9.22;96.54
74081;SHT31;62438;52.228;6.864;2023-03-21T05:26:28;9.18;96.57
74081;SHT31;62438;52.228;6.864;2023-03-21T05:28:29;9.19;96.64
74081;SHT31;62438;52.228;6.864;2023-03-21T05:30:31;9.23;96.51
74081;SHT31;62438;52.228;6.864;2023-03-21T05:32:32;9.18;96.69
74081;SHT31;62438;52.228;6.864;2023-03-21T05:34:32;9.18;96.63
74081;SHT31;62438;52.228;6.864;2023-03-21T05:36:33;9.16;96.38
74081;SHT31;62438;52.228;6.864;2023-03-21T05:38:35;9.16;96.64
74081;SHT31;62438;52.228;6.864;2023-03-21T05:40:35;9.15;96.19
74081;SHT31;62438;52.228;6.864;2023-03-21T05:42:36;9.14;96.46
74081;SHT31;62438;52.228;6.864;2023-03-21T05:44:36;9.14;96.45
74081;SHT31;62438;52.228;6.864;2023-03-21T05:46:39;9.11;96.75
74081;SHT31;62438;52.228;6.864;2023-03-21T05:48:39;9.14;96.68
74081;SHT31;62438;52.228;6.864;2023-03-21T05:50:40;9.10;96.87
74081;SHT31;62438;52.228;6.864;2023-03-21T05:52:40;9.11;96.64
74081;SHT31;62438;52.228;6.864;2023-03-21T05:54:41;9.12;96.91
74081;SHT31;62438;52.228;6.864;2023-03-21T05:56:41;9.10;96.73
74081;SHT31;62438;52.228;6.864;2023-03-21T05:58:42;9.11;96.63
74081;SHT31;62438;52.228;6.864;2023-03-21T06:00:42;9.14;96.50
74081;SHT31;62438;52.228;6.864;2023-03-21T06:02:43;9.10;96.59
74081;SHT31;62438;52.228;6.864;2023-03-21T06:04:44;9.14;96.62
74081;SHT31;62438;52.228;6.864;2023-03-21T06:06:44;9.11;96.36
74081;SHT31;62438;52.228;6.864;2023-03-21T06:08:45;9.10;96.60
74081;SHT31;62438;52.228;6.864;2023-03-21T06:10:45;9.08;97.08
74081;SHT31;62438;52.228;6.864;2023-03-21T06:12:46;9.08;96.76
74081;SHT31;62438;52.228;6.864;2023-03-21T06:14:46;9.07;96.86
74081;SHT31;62438;52.228;6.864;2023-03-21T06:16:46;9.08;96.89
74081;SHT31;62438;52.228;6.864;2023-03-21T06:18:47;9.05;97.11
74081;SHT31;62438;52.228;6.864;2023-03-21T06:20:47;9.04;96.91
74081;SHT31;62438;52.228;6.864;2023-03-21T06:22:48;9.05;96.86
74081;SHT31;62438;52.228;6.864;2023-03-21T06:24:48;9.05;96.79
74081;SHT31;62438;52.228;6.864;2023-03-21T06:26:49;9.04;96.76
74081;SHT31;62438;52.228;6.864;2023-03-21T06:28:49;9.07;96.75
74081;SHT31;62438;52.228;6.864;2023-03-21T06:30:51;9.12;96.92
74081;SHT31;62438;52.228;6.864;2023-03-21T06:32:51;9.11;97.01
74081;SHT31;62438;52.228;6.864;2023-03-21T06:34:52;9.05;97.08
74081;SHT31;62438;52.228;6.864;2023-03-21T06:36:52;9.10;97.10
74081;SHT31;62438;52.228;6.864;2023-03-21T06:38:53;9.11;97.16
74081;SHT31;62438;52.228;6.864;2023-03-21T06:40:54;9.12;97.24
74081;SHT31;62438;52.228;6.864;2023-03-21T06:42:54;9.15;97.14
74081;SHT31;62438;52.228;6.864;2023-03-21T06:44:55;9.15;96.84
74081;SHT31;62438;52.228;6.864;2023-03-21T06:46:56;9.21;97.13
74081;SHT31;62438;52.228;6.864;2023-03-21T06:48:56;9.19;97.08
74081;SHT31;62438;52.228;6.864;2023-03-21T06:50:56;9.22;96.81
74081;SHT31;62438;52.228;6.864;2023-03-21T06:52:57;9.21;96.58
74081;SHT31;62438;52.228;6.864;2023-03-21T06:54:58;9.21;97.09
74081;SHT31;62438;52.228;6.864;2023-03-21T06:56:58;9.19;96.93
74081;SHT31;62438;52.228;6.864;2023-03-21T06:58:59;9.18;97.41
74081;SHT31;62438;52.228;6.864;2023-03-21T07:01:00;9.18;97.50
74081;SHT31;62438;52.228;6.864;2023-03-21T07:03:00;9.15;97.30
74081;SHT31;62438;52.228;6.864;2023-03-21T07:05:01;9.18;97.22
74081;SHT31;62438;52.228;6.864;2023-03-21T07:07:01;9.14;97.32
74081;SHT31;62438;52.228;6.864;2023-03-21T07:09:03;9.25;97.27
74081;SHT31;62438;52.228;6.864;2023-03-21T07:11:04;9.21;97.20
74081;SHT31;62438;52.228;6.864;2023-03-21T07:13:06;9.22;97.40
74081;SHT31;62438;52.228;6.864;2023-03-21T07:15:07;9.21;97.52
74081;SHT31;62438;52.228;6.864;2023-03-21T07:17:09;9.22;97.30
74081;SHT31;62438;52.228;6.864;2023-03-21T07:19:10;9.25;97.25
74081;SHT31;62438;52.228;6.864;2023-03-21T07:21:10;9.26;97.42
74081;SHT31;62438;52.228;6.864;2023-03-21T07:23:11;9.26;97.46
74081;SHT31;62438;52.228;6.864;2023-03-21T07:25:11;9.28;97.50
74081;SHT31;62438;52.228;6.864;2023-03-21T07:27:11;9.26;97.20
74081;SHT31;62438;52.228;6.864;2023-03-21T07:29:12;9.25;97.77
74081;SHT31;62438;52.228;6.864;2023-03-21T07:31:14;9.28;97.72
74081;SHT31;62438;52.228;6.864;2023-03-21T07:33:15;9.31;97.79
74081;SHT31;62438;52.228;6.864;2023-03-21T07:35:16;9.33;97.77
74081;SHT31;62438;52.228;6.864;2023-03-21T07:37:16;9.32;97.74
74081;SHT31;62438;52.228;6.864;2023-03-21T07:39:17;9.28;97.89
74081;SHT31;62438;52.228;6.864;2023-03-21T07:41:19;9.26;97.92
74081;SHT31;62438;52.228;6.864;2023-03-21T07:43:20;9.28;97.76
74081;SHT31;62438;52.228;6.864;2023-03-21T07:45:20;9.29;97.56
74081;SHT31;62438;52.228;6.864;2023-03-21T07:47:22;9.35;97.48
74081;SHT31;62438;52.228;6.864;2023-03-21T07:49:23;9.38;97.95
74081;SHT31;62438;52.228;6.864;2023-03-21T07:51:23;9.39;97.86
74081;SHT31;62438;52.228;6.864;2023-03-21T07:53:23;9.43;97.55
74081;SHT31;62438;52.228;6.864;2023-03-21T07:55:24;9.42;97.78
74081;SHT31;62438;52.228;6.864;2023-03-21T07:57:25;9.50;97.66
74081;SHT31;62438;52.228;6.864;2023-03-21T07:59:25;9.47;97.37
74081;SHT31;62438;52.228;6.864;2023-03-21T08:01:25;9.52;97.44
74081;SHT31;62438;52.228;6.864;2023-03-21T08:03:26;9.54;96.92
74081;SHT31;62438;52.228;6.864;2023-03-21T08:05:33;9.57;97.24
74081;SHT31;62438;52.228;6.864;2023-03-21T08:07:34;9.62;97.37
74081;SHT31;62438;52.228;6.864;2023-03-21T08:09:35;9.60;97.11
74081;SHT31;62438;52.228;6.864;2023-03-21T08:11:36;9.62;97.27
74081;SHT31;62438;52.228;6.864;2023-03-21T08:13:37;9.73;97.23
74081;SHT31;62438;52.228;6.864;2023-03-21T08:15:37;9.76;97.15
74081;SHT31;62438;52.228;6.864;2023-03-21T08:17:41;9.84;96.95
74081;SHT31;62438;52.228;6.864;2023-03-21T08:19:44;9.83;96.04
74081;SHT31;62438;52.228;6.864;2023-03-21T08:21:45;9.89;96.68
74081;SHT31;62438;52.228;6.864;2023-03-21T08:23:46;9.89;96.28
74081;SHT31;62438;52.228;6.864;2023-03-21T08:25:52;9.90;96.52
74081;SHT31;62438;52.228;6.864;2023-03-21T08:27:53;9.94;96.63
74081;SHT31;62438;52.228;6.864;2023-03-21T08:29:53;10.07;96.10
74081;SHT31;62438;52.228;6.864;2023-03-21T08:31:53;10.00;95.43
74081;SHT31;62438;52.228;6.864;2023-03-21T08:33:54;10.07;95.54
74081;SHT31;62438;52.228;6.864;2023-03-21T08:35:58;10.21;95.24
74081;SHT31;62438;52.228;6.864;2023-03-21T08:38:01;10.22;95.22
74081;SHT31;62438;52.228;6.864;2023-03-21T08:40:04;10.28;94.38
74081;SHT31;62438;52.228;6.864;2023-03-21T08:42:07;10.37;94.38
74081;SHT31;62438;52.228;6.864;2023-03-21T08:44:09;10.41;94.07
74081;SHT31;62438;52.228;6.864;2023-03-21T08:46:09;10.51;94.17
74081;SHT31;62438;52.228;6.864;2023-03-21T08:48:10;10.62;94.38
74081;SHT31;62438;52.228;6.864;2023-03-21T08:50:13;10.66;93.46
74081;SHT31;62438;52.228;6.864;2023-03-21T08:52:14;10.60;93.51
74081;SHT31;62438;52.228;6.864;2023-03-21T08:54:19;10.72;93.68
74081;SHT31;62438;52.228;6.864;2023-03-21T08:56:20;10.75;92.90
74081;SHT31;62438;52.228;6.864;2023-03-21T08:58:21;10.79;92.19
74081;SHT31;62438;52.228;6.864;2023-03-21T09:00:22;10.99;92.70
74081;SHT31;62438;52.228;6.864;2023-03-21T09:02:22;11.09;91.77
74081;SHT31;62438;52.228;6.864;2023-03-21T09:04:23;11.00;91.93
74081;SHT31;62438;52.228;6.864;2023-03-21T09:06:25;11.06;91.63
74081;SHT31;62438;52.228;6.864;2023-03-21T09:08:26;11.06;91.92
74081;SHT31;62438;52.228;6.864;2023-03-21T09:10:27;11.07;92.90
74081;SHT31;62438;52.228;6.864;2023-03-21T09:12:27;11.00;91.37
74081;SHT31;62438;52.228;6.864;2023-03-21T09:14:28;10.99;92.35
74081;SHT31;62438;52.228;6.864;2023-03-21T09:16:29;11.06;92.67
74081;SHT31;62438;52.228;6.864;2023-03-21T09:18:31;11.07;92.04
74081;SHT31;62438;52.228;6.864;2023-03-21T09:20:46;11.06;91.82
74081;SHT31;62438;52.228;6.864;2023-03-21T09:22:47;10.89;92.05
74081;SHT31;62438;52.228;6.864;2023-03-21T09:24:48;10.89;92.40
74081;SHT31;62438;52.228;6.864;2023-03-21T09:26:49;10.96;92.56
74081;SHT31;62438;52.228;6.864;2023-03-21T09:28:50;10.92;91.83
74081;SHT31;62438;52.228;6.864;2023-03-21T09:30:52;10.96;91.64
74081;SHT31;62438;52.228;6.864;2023-03-21T09:32:54;10.93;91.25
74081;SHT31;62438;52.228;6.864;2023-03-21T09:34:55;10.86;91.32
74081;SHT31;62438;52.228;6.864;2023-03-21T09:36:56;10.86;91.90
74081;SHT31;62438;52.228;6.864;2023-03-21T09:38:57;10.81;91.87
74081;SHT31;62438;52.228;6.864;2023-03-21T09:46:03;10.68;92.15
74081;SHT31;62438;52.228;6.864;2023-03-21T09:48:15;10.62;91.87
74081;SHT31;62438;52.228;6.864;2023-03-21T09:50:25;10.66;92.47
74081;SHT31;62438;52.228;6.864;2023-03-21T09:54:52;10.55;93.89
74081;SHT31;62438;52.228;6.864;2023-03-21T09:56:55;10.56;94.03
74081;SHT31;62438;52.228;6.864;2023-03-21T09:58:59;10.51;93.40
74081;SHT31;62438;52.228;6.864;2023-03-21T10:01:18;10.48;93.52
74081;SHT31;62438;52.228;6.864;2023-03-21T10:03:30;10.48;94.27
74081;SHT31;62438;52.228;6.864;2023-03-21T10:05:34;10.48;94.67
74081;SHT31;62438;52.228;6.864;2023-03-21T10:08:05;10.52;94.02
74081;SHT31;62438;52.228;6.864;2023-03-21T10:10:11;10.55;94.14
74081;SHT31;62438;52.228;6.864;2023-03-21T10:12:20;10.56;94.58
74081;SHT31;62438;52.228;6.864;2023-03-21T10:14:28;10.68;95.59
74081;SHT31;62438;52.228;6.864;2023-03-21T10:16:33;10.72;95.18
74081;SHT31;62438;52.228;6.864;2023-03-21T10:18:35;10.65;93.86
74081;SHT31;62438;52.228;6.864;2023-03-21T10:20:37;10.69;94.14
74081;SHT31;62438;52.228;6.864;2023-03-21T10:22:38;10.73;94.41
74081;SHT31;62438;52.228;6.864;2023-03-21T10:24:38;10.80;94.68
74081;SHT31;62438;52.228;6.864;2023-03-21T10:26:39;10.80;95.01
74081;SHT31;62438;52.228;6.864;2023-03-21T10:28:41;10.84;94.79
74081;SHT31;62438;52.228;6.864;2023-03-21T10:30:53;10.81;94.49
74081;SHT31;62438;52.228;6.864;2023-03-21T10:33:00;10.83;94.20
74081;SHT31;62438;52.228;6.864;2023-03-21T10:35:04;10.84;94.46
74081;SHT31;62438;52.228;6.864;2023-03-21T10:37:05;10.92;94.70
74081;SHT31;62438;52.228;6.864;2023-03-21T10:39:23;11.00;94.73
74081;SHT31;62438;52.228;6.864;2023-03-21T10:41:26;10.92;94.10
74081;SHT31;62438;52.228;6.864;2023-03-21T10:45:32;10.93;94.11
74081;SHT31;62438;52.228;6.864;2023-03-21T10:47:34;11.00;94.76
74081;SHT31;62438;52.228;6.864;2023-03-21T10:49:36;10.99;93.85
74081;SHT31;62438;52.228;6.864;2023-03-21T10:51:38;10.95;93.99
74081;SHT31;62438;52.228;6.864;2023-03-21T10:53:40;10.95;94.00
74081;SHT31;62438;52.228;6.864;2023-03-21T10:55:50;10.96;93.49
74081;SHT31;62438;52.228;6.864;2023-03-21T10:57:56;10.93;93.57
74081;SHT31;62438;52.228;6.864;2023-03-21T11:00:00;11.00;93.84
74081;SHT31;62438;52.228;6.864;2023-03-21T11:02:17;10.93;94.53
74081;SHT31;62438;52.228;6.864;2023-03-21T11:04:21;10.89;94.73
74081;SHT31;62438;52.228;6.864;2023-03-21T11:06:28;10.86;94.52
74081;SHT31;62438;52.228;6.864;2023-03-21T11:09:21;10.84;94.62
74081;SHT31;62438;52.228;6.864;2023-03-21T11:11:11;10.81;94.72
74081;SHT31;62438;52.228;6.864;2023-03-21T11:13:19;10.75;93.80
74081;SHT31;62438;52.228;6.864;2023-03-21T11:15:29;10.76;93.99
74081;SHT31;62438;52.228;6.864;2023-03-21T11:17:34;10.79;94.04
74081;SHT31;62438;52.228;6.864;2023-03-21T11:19:35;10.76;94.07
74081;SHT31;62438;52.228;6.864;2023-03-21T11:21:36;10.86;94.55
74081;SHT31;62438;52.228;6.864;2023-03-21T11:23:41;10.95;94.68
74081;SHT31;62438;52.228;6.864;2023-03-21T11:25:47;11.14;94.51
74081;SHT31;62438;52.228;6.864;2023-03-21T11:27:53;11.14;94.11
74081;SHT31;62438;52.228;6.864;2023-03-21T11:29:55;11.21;93.98
74081;SHT31;62438;52.228;6.864;2023-03-21T11:31:58;11.11;94.26
74081;SHT31;62438;52.228;6.864;2023-03-21T11:34:05;11.20;93.29
74081;SHT31;62438;52.228;6.864;2023-03-21T11:36:26;11.30;93.35
74081;SHT31;62438;52.228;6.864;2023-03-21T11:38:30;11.35;93.01
74081;SHT31;62438;52.228;6.864;2023-03-21T11:40:33;11.41;93.20
74081;SHT31;62438;52.228;6.864;2023-03-21T11:42:40;11.47;92.98
74081;SHT31;62438;52.228;6.864;2023-03-21T11:44:42;11.47;92.82
74081;SHT31;62438;52.228;6.864;2023-03-21T11:46:43;11.61;93.20
74081;SHT31;62438;52.228;6.864;2023-03-21T11:48:45;11.75;92.61
74081;SHT31;62438;52.228;6.864;2023-03-21T11:50:49;11.66;91.92
74081;SHT31;62438;52.228;6.864;2023-03-21T11:55:34;11.89;91.24
74081;SHT31;62438;52.228;6.864;2023-03-21T11:57:48;11.85;90.94
74081;SHT31;62438;52.228;6.864;2023-03-21T12:00:16;11.93;91.32
74081;SHT31;62438;52.228;6.864;2023-03-21T12:07:01;11.83;89.78
74081;SHT31;62438;52.228;6.864;2023-03-21T12:09:10;11.88;89.72
74081;SHT31;62438;52.228;6.864;2023-03-21T12:21:28;11.96;88.38
74081;SHT31;62438;52.228;6.864;2023-03-21T12:30:47;12.15;87.49
74081;SHT31;62438;52.228;6.864;2023-03-21T12:35:28;12.07;87.44
74081;SHT31;62438;52.228;6.864;2023-03-21T12:44:35;12.25;86.25
74081;SHT31;62438;52.228;6.864;2023-03-21T12:46:47;12.37;87.80
74081;SHT31;62438;52.228;6.864;2023-03-21T12:48:55;12.43;85.41
74081;SHT31;62438;52.228;6.864;2023-03-21T12:50:59;12.41;83.93
74081;SHT31;62438;52.228;6.864;2023-03-21T12:55:30;12.51;83.25
74081;SHT31;62438;52.228;6.864;2023-03-21T12:57:35;12.63;82.64
74081;SHT31;62438;52.228;6.864;2023-03-21T12:59:39;12.69;82.42
74081;SHT31;62438;52.228;6.864;2023-03-21T13:01:44;12.78;83.46
74081;SHT31;62438;52.228;6.864;2023-03-21T13:03:53;12.87;81.48
74081;SHT31;62438;52.228;6.864;2023-03-21T13:05:57;12.89;82.14
74081;SHT31;62438;52.228;6.864;2023-03-21T13:08:11;13.22;81.71
74081;SHT31;62438;52.228;6.864;2023-03-21T13:10:18;13.26;80.07
74081;SHT31;62438;52.228;6.864;2023-03-21T13:15:04;13.27;80.50
74081;SHT31;62438;52.228;6.864;2023-03-21T13:17:26;13.38;81.50
74081;SHT31;62438;52.228;6.864;2023-03-21T13:19:50;13.11;80.62
74081;SHT31;62438;52.228;6.864;2023-03-21T13:22:15;12.82;81.39
74081;SHT31;62438;52.228;6.864;2023-03-21T13:24:25;12.78;81.05
74081;SHT31;62438;52.228;6.864;2023-03-21T13:26:40;12.74;81.87
74081;SHT31;62438;52.228;6.864;2023-03-21T13:28:41;12.73;82.08
74081;SHT31;62438;52.228;6.864;2023-03-21T13:30:41;12.67;81.20
74081;SHT31;62438;52.228;6.864;2023-03-21T13:32:44;12.71;81.61
74081;SHT31;62438;52.228;6.864;2023-03-21T13:34:53;12.65;81.45
74081;SHT31;62438;52.228;6.864;2023-03-21T13:36:55;12.78;81.85
74081;SHT31;62438;52.228;6.864;2023-03-21T13:39:04;12.67;81.57
74081;SHT31;62438;52.228;6.864;2023-03-21T13:45:46;12.57;82.16
74081;SHT31;62438;52.228;6.864;2023-03-21T13:47:58;12.57;82.06
74081;SHT31;62438;52.228;6.864;2023-03-21T13:52:25;12.47;81.70
74081;SHT31;62438;52.228;6.864;2023-03-21T14:01:10;12.64;82.54
74081;SHT31;62438;52.228;6.864;2023-03-21T14:03:14;12.75;81.97
74081;SHT31;62438;52.228;6.864;2023-03-21T14:05:23;12.92;81.95
74081;SHT31;62438;52.228;6.864;2023-03-21T14:07:27;13.01;81.47
74081;SHT31;62438;52.228;6.864;2023-03-21T14:11:35;13.27;80.67
74081;SHT31;62438;52.228;6.864;2023-03-21T14:13:35;13.32;80.45
74081;SHT31;62438;52.228;6.864;2023-03-21T14:15:48;13.36;81.01
74081;SHT31;62438;52.228;6.864;2023-03-21T14:17:54;13.18;80.43
74081;SHT31;62438;52.228;6.864;2023-03-21T14:19:59;13.18;80.90
74081;SHT31;62438;52.228;6.864;2023-03-21T14:22:00;13.24;80.63
74081;SHT31;62438;52.228;6.864;2023-03-21T14:24:06;13.16;80.19
74081;SHT31;62438;52.228;6.864;2023-03-21T14:26:09;13.11;80.27
74081;SHT31;62438;52.228;6.864;2023-03-21T14:28:19;13.03;80.89
74081;SHT31;62438;52.228;6.864;2023-03-21T14:30:25;13.03;80.78
74081;SHT31;62438;52.228;6.864;2023-03-21T14:32:28;13.03;81.22
74081;SHT31;62438;52.228;6.864;2023-03-21T14:34:32;13.22;81.71
74081;SHT31;62438;52.228;6.864;2023-03-21T14:36:37;13.36;80.31
74081;SHT31;62438;52.228;6.864;2023-03-21T14:38:39;13.33;79.71
74081;SHT31;62438;52.228;6.864;2023-03-21T14:40:49;13.43;79.91
74081;SHT31;62438;52.228;6.864;2023-03-21T14:42:51;13.52;79.30